sensor_id;sensor_type;location;lat;lon;timestamp;temperature;humidity
17208;DHT22;8720;48.488;9.202;2023-03-05T00:00:53;5.70;45.60
17208;DHT22;8720;48.488;9.202;2023-03-05T00:03:21;5.70;45.60
17208;DHT22;8720;48.488;9.202;2023-03-05T00:05:48;5.70;45.70
17208;DHT22;8720;48.488;9.202;2023-03-05T00:08:22;5.70;45.70
17208;DHT22;8720;48.488;9.202;2023-03-05T00:10:55;5.70;45.80
17208;DHT22;8720;48.488;9.202;2023-03-05T00:13:23;5.70;45.70
17208;DHT22;8720;48.488;9.202;2023-03-05T00:15:50;5.70;45.70
17208;DHT22;8720;48.488;9.202;2023-03-05T00:18:18;5.70;45.70
17208;DHT22;8720;48.488;9.202;2023-03-05T00:20:46;5.70;45.80
17208;DHT22;8720;48.488;9.202;2023-03-05T00:23:13;5.70;45.60
17208;DHT22;8720;48.488;9.202;2023-03-05T00:25:42;5.70;45.70
17208;DHT22;8720;48.488;9.202;2023-03-05T00:28:10;5.70;45.80
17208;DHT22;8720;48.488;9.202;2023-03-05T00:30:38;5.70;45.90
17208;DHT22;8720;48.488;9.202;2023-03-05T00:33:06;5.70;45.90
17208;DHT22;8720;48.488;9.202;2023-03-05T00:35:38;5.70;45.90
17208;DHT22;8720;48.488;9.202;2023-03-05T00:38:06;5.70;45.90
17208;DHT22;8720;48.488;9.202;2023-03-05T00:40:35;5.70;45.90
17208;DHT22;8720;48.488;9.202;2023-03-05T00:43:05;5.70;46.00
17208;DHT22;8720;48.488;9.202;2023-03-05T00:45:33;5.70;46.00
17208;DHT22;8720;48.488;9.202;2023-03-05T00:48:01;5.70;45.90
17208;DHT22;8720;48.488;9.202;2023-03-05T00:50:29;5.70;45.90
17208;DHT22;8720;48.488;9.202;2023-03-05T00:52:56;5.70;45.90
17208;DHT22;8720;48.488;9.202;2023-03-05T00:55:24;5.70;45.90
17208;DHT22;8720;48.488;9.202;2023-03-05T00:57:51;5.70;45.90
17208;DHT22;8720;48.488;9.202;2023-03-05T01:00:21;5.60;45.90
17208;DHT22;8720;48.488;9.202;2023-03-05T01:02:48;5.60;45.90
17208;DHT22;8720;48.488;9.202;2023-03-05T01:05:15;5.60;45.90
17208;DHT22;8720;48.488;9.202;2023-03-05T01:07:42;5.60;46.00
17208;DHT22;8720;48.488;9.202;2023-03-05T01:10:10;5.60;45.90
17208;DHT22;8720;48.488;9.202;2023-03-05T01:12:38;5.70;46.00
17208;DHT22;8720;48.488;9.202;2023-03-05T01:15:06;5.60;45.90
17208;DHT22;8720;48.488;9.202;2023-03-05T01:17:35;5.60;45.90
17208;DHT22;8720;48.488;9.202;2023-03-05T01:20:04;5.60;45.80
17208;DHT22;8720;48.488;9.202;2023-03-05T01:22:34;5.70;45.90
17208;DHT22;8720;48.488;9.202;2023-03-05T01:25:01;5.60;45.80
17208;DHT22;8720;48.488;9.202;2023-03-05T01:27:29;5.60;45.80
17208;DHT22;8720;48.488;9.202;2023-03-05T01:29:56;5.60;45.80
17208;DHT22;8720;48.488;9.202;2023-03-05T01:32:24;5.60;45.90
17208;DHT22;8720;48.488;9.202;2023-03-05T01:34:52;5.60;45.90
17208;DHT22;8720;48.488;9.202;2023-03-05T01:37:20;5.60;45.90
17208;DHT22;8720;48.488;9.202;2023-03-05T01:39:47;5.60;46.00
17208;DHT22;8720;48.488;9.202;2023-03-05T01:42:14;5.60;45.90
17208;DHT22;8720;48.488;9.202;2023-03-05T01:44:59;5.60;45.90
17208;DHT22;8720;48.488;9.202;2023-03-05T01:47:28;5.60;46.00
17208;DHT22;8720;48.488;9.202;2023-03-05T01:49:58;5.60;46.00
17208;DHT22;8720;48.488;9.202;2023-03-05T01:52:28;5.60;46.00
17208;DHT22;8720;48.488;9.202;2023-03-05T01:55:02;5.60;46.00
17208;DHT22;8720;48.488;9.202;2023-03-05T01:57:34;5.60;46.00
17208;DHT22;8720;48.488;9.202;2023-03-05T02:00:08;5.70;46.10
17208;DHT22;8720;48.488;9.202;2023-03-05T02:02:43;5.70;46.10
17208;DHT22;8720;48.488;9.202;2023-03-05T02:05:18;5.70;46.10
17208;DHT22;8720;48.488;9.202;2023-03-05T02:07:52;5.70;46.10
17208;DHT22;8720;48.488;9.202;2023-03-05T02:10:23;5.70;46.20
17208;DHT22;8720;48.488;9.202;2023-03-05T02:12:53;5.70;46.10
17208;DHT22;8720;48.488;9.202;2023-03-05T02:15:23;5.70;46.10
17208;DHT22;8720;48.488;9.202;2023-03-05T02:17:51;5.70;46.20
17208;DHT22;8720;48.488;9.202;2023-03-05T02:20:22;5.70;46.20
17208;DHT22;8720;48.488;9.202;2023-03-05T02:22:51;5.70;46.20
17208;DHT22;8720;48.488;9.202;2023-03-05T02:25:21;5.70;46.20
17208;DHT22;8720;48.488;9.202;2023-03-05T02:27:54;5.70;46.20
17208;DHT22;8720;48.488;9.202;2023-03-05T02:30:27;5.70;46.20
17208;DHT22;8720;48.488;9.202;2023-03-05T02:32:56;5.70;46.30
17208;DHT22;8720;48.488;9.202;2023-03-05T02:35:24;5.70;46.30
17208;DHT22;8720;48.488;9.202;2023-03-05T02:37:53;5.70;46.20
17208;DHT22;8720;48.488;9.202;2023-03-05T02:40:21;5.70;46.30
17208;DHT22;8720;48.488;9.202;2023-03-05T02:42:49;5.70;46.40
17208;DHT22;8720;48.488;9.202;2023-03-05T02:45:18;5.70;46.50
17208;DHT22;8720;48.488;9.202;2023-03-05T02:47:45;5.70;46.40
17208;DHT22;8720;48.488;9.202;2023-03-05T02:50:14;5.70;46.50
17208;DHT22;8720;48.488;9.202;2023-03-05T02:52:41;5.70;46.40
17208;DHT22;8720;48.488;9.202;2023-03-05T02:55:14;5.70;46.40
17208;DHT22;8720;48.488;9.202;2023-03-05T02:57:43;5.70;46.50
17208;DHT22;8720;48.488;9.202;2023-03-05T03:00:11;5.70;46.40
17208;DHT22;8720;48.488;9.202;2023-03-05T03:03:03;5.70;46.40
17208;DHT22;8720;48.488;9.202;2023-03-05T03:05:30;5.70;47.00
17208;DHT22;8720;48.488;9.202;2023-03-05T03:07:57;5.70;46.40
17208;DHT22;8720;48.488;9.202;2023-03-05T03:10:26;5.70;46.50
17208;DHT22;8720;48.488;9.202;2023-03-05T03:12:53;5.70;46.50
17208;DHT22;8720;48.488;9.202;2023-03-05T03:15:21;5.70;46.40
17208;DHT22;8720;48.488;9.202;2023-03-05T03:17:48;5.70;46.40
17208;DHT22;8720;48.488;9.202;2023-03-05T03:20:17;5.70;46.30
17208;DHT22;8720;48.488;9.202;2023-03-05T03:22:45;5.70;46.40
17208;DHT22;8720;48.488;9.202;2023-03-05T03:25:14;5.70;46.30
17208;DHT22;8720;48.488;9.202;2023-03-05T03:27:43;5.70;46.30
17208;DHT22;8720;48.488;9.202;2023-03-05T03:30:12;5.70;46.20
17208;DHT22;8720;48.488;9.202;2023-03-05T03:32:41;5.70;46.20
17208;DHT22;8720;48.488;9.202;2023-03-05T03:35:11;5.70;46.20
17208;DHT22;8720;48.488;9.202;2023-03-05T03:37:39;5.70;46.30
17208;DHT22;8720;48.488;9.202;2023-03-05T03:40:07;5.70;46.30
17208;DHT22;8720;48.488;9.202;2023-03-05T03:42:37;5.70;46.40
17208;DHT22;8720;48.488;9.202;2023-03-05T03:45:07;5.70;46.40
17208;DHT22;8720;48.488;9.202;2023-03-05T03:47:35;5.70;46.40
17208;DHT22;8720;48.488;9.202;2023-03-05T03:50:03;5.70;46.40
17208;DHT22;8720;48.488;9.202;2023-03-05T03:52:31;5.70;46.40
17208;DHT22;8720;48.488;9.202;2023-03-05T03:54:58;5.80;46.40
17208;DHT22;8720;48.488;9.202;2023-03-05T03:57:27;5.80;46.40
17208;DHT22;8720;48.488;9.202;2023-03-05T03:59:55;5.80;46.50
17208;DHT22;8720;48.488;9.202;2023-03-05T04:02:24;5.80;46.50
17208;DHT22;8720;48.488;9.202;2023-03-05T04:04:52;5.80;46.40
17208;DHT22;8720;48.488;9.202;2023-03-05T04:07:19;5.80;46.40
17208;DHT22;8720;48.488;9.202;2023-03-05T04:09:47;5.80;46.50
17208;DHT22;8720;48.488;9.202;2023-03-05T04:12:14;5.80;46.40
17208;DHT22;8720;48.488;9.202;2023-03-05T04:14:43;5.80;46.40
17208;DHT22;8720;48.488;9.202;2023-03-05T04:17:11;5.80;46.40
17208;DHT22;8720;48.488;9.202;2023-03-05T04:19:41;5.80;46.40
17208;DHT22;8720;48.488;9.202;2023-03-05T04:22:10;5.80;46.60
17208;DHT22;8720;48.488;9.202;2023-03-05T04:24:38;5.80;46.60
17208;DHT22;8720;48.488;9.202;2023-03-05T04:27:05;5.80;46.50
17208;DHT22;8720;48.488;9.202;2023-03-05T04:29:33;5.80;46.40
17208;DHT22;8720;48.488;9.202;2023-03-05T04:32:01;5.80;46.40
17208;DHT22;8720;48.488;9.202;2023-03-05T04:34:29;5.80;46.40
17208;DHT22;8720;48.488;9.202;2023-03-05T04:36:58;5.80;46.40
17208;DHT22;8720;48.488;9.202;2023-03-05T04:39:26;5.80;46.40
17208;DHT22;8720;48.488;9.202;2023-03-05T04:41:53;5.80;46.40
17208;DHT22;8720;48.488;9.202;2023-03-05T04:44:20;5.80;46.30
17208;DHT22;8720;48.488;9.202;2023-03-05T04:46:50;5.80;46.40
17208;DHT22;8720;48.488;9.202;2023-03-05T04:49:17;5.80;46.40
17208;DHT22;8720;48.488;9.202;2023-03-05T04:51:45;5.80;46.40
17208;DHT22;8720;48.488;9.202;2023-03-05T04:54:13;5.80;46.30
17208;DHT22;8720;48.488;9.202;2023-03-05T04:56:41;5.80;46.40
17208;DHT22;8720;48.488;9.202;2023-03-05T04:59:08;5.80;46.40
17208;DHT22;8720;48.488;9.202;2023-03-05T05:01:35;5.80;47.00
17208;DHT22;8720;48.488;9.202;2023-03-05T05:04:03;5.90;46.40
17208;DHT22;8720;48.488;9.202;2023-03-05T05:06:30;5.80;46.40
17208;DHT22;8720;48.488;9.202;2023-03-05T05:08:57;5.80;46.30
17208;DHT22;8720;48.488;9.202;2023-03-05T05:11:26;5.90;46.40
17208;DHT22;8720;48.488;9.202;2023-03-05T05:13:53;5.80;46.30
17208;DHT22;8720;48.488;9.202;2023-03-05T05:16:21;5.90;46.30
17208;DHT22;8720;48.488;9.202;2023-03-05T05:18:48;5.90;46.30
17208;DHT22;8720;48.488;9.202;2023-03-05T05:21:15;5.90;46.30
17208;DHT22;8720;48.488;9.202;2023-03-05T05:23:43;5.90;46.30
17208;DHT22;8720;48.488;9.202;2023-03-05T05:26:11;5.90;46.30
17208;DHT22;8720;48.488;9.202;2023-03-05T05:28:41;5.90;46.30
17208;DHT22;8720;48.488;9.202;2023-03-05T05:31:10;5.90;46.30
17208;DHT22;8720;48.488;9.202;2023-03-05T05:33:38;5.90;46.30
17208;DHT22;8720;48.488;9.202;2023-03-05T05:36:10;5.90;46.50
17208;DHT22;8720;48.488;9.202;2023-03-05T05:38:38;5.90;46.60
17208;DHT22;8720;48.488;9.202;2023-03-05T05:41:07;5.90;46.70
17208;DHT22;8720;48.488;9.202;2023-03-05T05:43:36;5.90;46.80
17208;DHT22;8720;48.488;9.202;2023-03-05T05:46:07;5.90;46.80
17208;DHT22;8720;48.488;9.202;2023-03-05T05:48:37;5.80;46.80
17208;DHT22;8720;48.488;9.202;2023-03-05T05:51:05;5.80;46.90
17208;DHT22;8720;48.488;9.202;2023-03-05T05:53:34;5.80;47.10
17208;DHT22;8720;48.488;9.202;2023-03-05T05:56:03;5.80;47.10
17208;DHT22;8720;48.488;9.202;2023-03-05T05:58:31;5.80;47.20
17208;DHT22;8720;48.488;9.202;2023-03-05T06:00:58;5.80;47.30
17208;DHT22;8720;48.488;9.202;2023-03-05T06:03:27;5.80;47.20
17208;DHT22;8720;48.488;9.202;2023-03-05T06:05:54;5.80;47.30
17208;DHT22;8720;48.488;9.202;2023-03-05T06:08:23;5.80;47.20
17208;DHT22;8720;48.488;9.202;2023-03-05T06:10:54;5.70;47.20
17208;DHT22;8720;48.488;9.202;2023-03-05T06:13:21;5.70;48.20
17208;DHT22;8720;48.488;9.202;2023-03-05T06:15:55;5.70;48.10
17208;DHT22;8720;48.488;9.202;2023-03-05T06:18:23;5.70;48.10
17208;DHT22;8720;48.488;9.202;2023-03-05T06:20:56;5.70;47.90
17208;DHT22;8720;48.488;9.202;2023-03-05T06:23:26;5.80;48.00
17208;DHT22;8720;48.488;9.202;2023-03-05T06:25:54;5.80;47.80
17208;DHT22;8720;48.488;9.202;2023-03-05T06:28:24;5.80;48.40
17208;DHT22;8720;48.488;9.202;2023-03-05T06:30:59;5.90;47.90
17208;DHT22;8720;48.488;9.202;2023-03-05T06:33:27;5.90;47.90
17208;DHT22;8720;48.488;9.202;2023-03-05T06:35:56;5.90;47.70
17208;DHT22;8720;48.488;9.202;2023-03-05T06:38:24;5.90;47.80
17208;DHT22;8720;48.488;9.202;2023-03-05T06:40:51;5.90;47.80
17208;DHT22;8720;48.488;9.202;2023-03-05T06:43:19;5.90;47.80
17208;DHT22;8720;48.488;9.202;2023-03-05T06:45:46;5.90;47.80
17208;DHT22;8720;48.488;9.202;2023-03-05T06:48:13;5.90;47.70
17208;DHT22;8720;48.488;9.202;2023-03-05T06:50:41;5.90;47.70
17208;DHT22;8720;48.488;9.202;2023-03-05T06:53:09;6.00;47.80
17208;DHT22;8720;48.488;9.202;2023-03-05T06:55:37;6.00;47.90
17208;DHT22;8720;48.488;9.202;2023-03-05T06:58:06;6.00;47.90
17208;DHT22;8720;48.488;9.202;2023-03-05T07:00:36;6.00;48.00
17208;DHT22;8720;48.488;9.202;2023-03-05T07:03:03;6.00;47.90
17208;DHT22;8720;48.488;9.202;2023-03-05T07:05:30;6.00;47.90
17208;DHT22;8720;48.488;9.202;2023-03-05T07:07:58;6.10;48.00
17208;DHT22;8720;48.488;9.202;2023-03-05T07:10:26;6.10;48.00
17208;DHT22;8720;48.488;9.202;2023-03-05T07:12:53;6.10;48.00
17208;DHT22;8720;48.488;9.202;2023-03-05T07:15:21;6.10;48.00
17208;DHT22;8720;48.488;9.202;2023-03-05T07:17:48;6.20;48.10
17208;DHT22;8720;48.488;9.202;2023-03-05T07:20:16;6.20;48.10
17208;DHT22;8720;48.488;9.202;2023-03-05T07:22:44;6.20;48.00
17208;DHT22;8720;48.488;9.202;2023-03-05T07:25:11;6.30;48.00
17208;DHT22;8720;48.488;9.202;2023-03-05T07:27:45;6.30;48.00
17208;DHT22;8720;48.488;9.202;2023-03-05T07:30:13;6.30;47.90
17208;DHT22;8720;48.488;9.202;2023-03-05T07:32:41;6.40;47.90
17208;DHT22;8720;48.488;9.202;2023-03-05T07:35:09;6.40;47.80
17208;DHT22;8720;48.488;9.202;2023-03-05T07:37:36;6.40;47.80
17208;DHT22;8720;48.488;9.202;2023-03-05T07:40:04;6.40;47.70
17208;DHT22;8720;48.488;9.202;2023-03-05T07:42:32;6.40;47.70
17208;DHT22;8720;48.488;9.202;2023-03-05T07:45:13;6.50;47.70
17208;DHT22;8720;48.488;9.202;2023-03-05T07:47:40;6.50;47.60
17208;DHT22;8720;48.488;9.202;2023-03-05T07:50:08;6.50;47.50
17208;DHT22;8720;48.488;9.202;2023-03-05T07:52:36;6.50;47.50
17208;DHT22;8720;48.488;9.202;2023-03-05T07:55:04;6.60;47.60
17208;DHT22;8720;48.488;9.202;2023-03-05T07:57:32;6.60;47.60
17208;DHT22;8720;48.488;9.202;2023-03-05T08:00:00;6.60;47.50
17208;DHT22;8720;48.488;9.202;2023-03-05T08:02:38;6.70;47.50
17208;DHT22;8720;48.488;9.202;2023-03-05T08:05:06;6.70;47.40
17208;DHT22;8720;48.488;9.202;2023-03-05T08:07:34;6.80;47.40
17208;DHT22;8720;48.488;9.202;2023-03-05T08:10:01;6.80;47.30
17208;DHT22;8720;48.488;9.202;2023-03-05T08:12:29;6.80;47.30
17208;DHT22;8720;48.488;9.202;2023-03-05T08:14:56;6.90;47.20
17208;DHT22;8720;48.488;9.202;2023-03-05T08:17:23;6.90;47.10
17208;DHT22;8720;48.488;9.202;2023-03-05T08:19:52;6.90;47.20
17208;DHT22;8720;48.488;9.202;2023-03-05T08:22:22;6.90;47.30
17208;DHT22;8720;48.488;9.202;2023-03-05T08:24:50;6.90;47.40
17208;DHT22;8720;48.488;9.202;2023-03-05T08:27:17;7.00;47.30
17208;DHT22;8720;48.488;9.202;2023-03-05T08:29:45;7.10;47.10
17208;DHT22;8720;48.488;9.202;2023-03-05T08:32:12;7.10;46.90
17208;DHT22;8720;48.488;9.202;2023-03-05T08:34:39;7.10;46.70
17208;DHT22;8720;48.488;9.202;2023-03-05T08:37:08;7.20;46.70
17208;DHT22;8720;48.488;9.202;2023-03-05T08:39:35;7.20;46.60
17208;DHT22;8720;48.488;9.202;2023-03-05T08:42:03;7.30;46.70
17208;DHT22;8720;48.488;9.202;2023-03-05T08:44:31;7.30;46.70
17208;DHT22;8720;48.488;9.202;2023-03-05T08:46:58;7.30;46.60
17208;DHT22;8720;48.488;9.202;2023-03-05T08:49:26;7.40;46.50
17208;DHT22;8720;48.488;9.202;2023-03-05T08:51:53;7.40;46.50
17208;DHT22;8720;48.488;9.202;2023-03-05T08:54:22;7.40;46.50
17208;DHT22;8720;48.488;9.202;2023-03-05T08:56:49;7.50;46.70
17208;DHT22;8720;48.488;9.202;2023-03-05T08:59:16;7.50;46.60
17208;DHT22;8720;48.488;9.202;2023-03-05T09:01:43;7.50;46.60
17208;DHT22;8720;48.488;9.202;2023-03-05T09:04:11;7.60;46.60
17208;DHT22;8720;48.488;9.202;2023-03-05T09:06:38;7.60;46.40
17208;DHT22;8720;48.488;9.202;2023-03-05T09:09:06;7.60;46.30
17208;DHT22;8720;48.488;9.202;2023-03-05T09:11:35;7.70;46.40
17208;DHT22;8720;48.488;9.202;2023-03-05T09:14:04;7.60;46.40
17208;DHT22;8720;48.488;9.202;2023-03-05T09:16:32;7.70;46.40
17208;DHT22;8720;48.488;9.202;2023-03-05T09:19:00;7.70;46.30
17208;DHT22;8720;48.488;9.202;2023-03-05T09:21:28;7.80;46.30
17208;DHT22;8720;48.488;9.202;2023-03-05T09:23:55;7.80;46.20
17208;DHT22;8720;48.488;9.202;2023-03-05T09:26:25;7.80;46.20
17208;DHT22;8720;48.488;9.202;2023-03-05T09:28:54;7.90;46.40
17208;DHT22;8720;48.488;9.202;2023-03-05T09:31:21;7.90;46.40
17208;DHT22;8720;48.488;9.202;2023-03-05T09:33:49;7.90;46.30
17208;DHT22;8720;48.488;9.202;2023-03-05T09:36:18;8.00;46.30
17208;DHT22;8720;48.488;9.202;2023-03-05T09:38:47;8.00;46.20
17208;DHT22;8720;48.488;9.202;2023-03-05T09:41:18;8.10;46.20
17208;DHT22;8720;48.488;9.202;2023-03-05T09:44:01;8.10;46.10
17208;DHT22;8720;48.488;9.202;2023-03-05T09:46:50;8.20;46.00
17208;DHT22;8720;48.488;9.202;2023-03-05T09:49:29;8.20;45.90
17208;DHT22;8720;48.488;9.202;2023-03-05T09:52:04;8.20;45.80
17208;DHT22;8720;48.488;9.202;2023-03-05T09:54:41;8.30;45.70
17208;DHT22;8720;48.488;9.202;2023-03-05T09:57:16;8.30;45.70
17208;DHT22;8720;48.488;9.202;2023-03-05T09:59:52;8.30;45.50
17208;DHT22;8720;48.488;9.202;2023-03-05T10:02:24;8.40;45.50
17208;DHT22;8720;48.488;9.202;2023-03-05T10:04:58;8.50;45.60
17208;DHT22;8720;48.488;9.202;2023-03-05T10:07:31;8.50;45.40
17208;DHT22;8720;48.488;9.202;2023-03-05T10:10:04;8.50;45.40
17208;DHT22;8720;48.488;9.202;2023-03-05T10:12:39;8.60;45.30
17208;DHT22;8720;48.488;9.202;2023-03-05T10:15:13;8.60;45.30
17208;DHT22;8720;48.488;9.202;2023-03-05T10:18:03;8.60;45.00
17208;DHT22;8720;48.488;9.202;2023-03-05T10:20:54;8.70;44.80
17208;DHT22;8720;48.488;9.202;2023-03-05T10:23:30;8.70;44.60
17208;DHT22;8720;48.488;9.202;2023-03-05T10:26:12;8.70;44.60
17208;DHT22;8720;48.488;9.202;2023-03-05T10:28:51;8.70;44.60
17208;DHT22;8720;48.488;9.202;2023-03-05T10:31:42;8.80;44.70
17208;DHT22;8720;48.488;9.202;2023-03-05T10:34:40;8.80;44.60
17208;DHT22;8720;48.488;9.202;2023-03-05T10:37:32;8.90;44.60
17208;DHT22;8720;48.488;9.202;2023-03-05T10:40:25;8.90;44.40
17208;DHT22;8720;48.488;9.202;2023-03-05T10:43:06;9.00;44.50
17208;DHT22;8720;48.488;9.202;2023-03-05T10:45:46;9.00;44.30
17208;DHT22;8720;48.488;9.202;2023-03-05T10:48:26;9.00;44.30
17208;DHT22;8720;48.488;9.202;2023-03-05T10:50:59;9.00;44.10
17208;DHT22;8720;48.488;9.202;2023-03-05T10:53:32;9.10;44.40
17208;DHT22;8720;48.488;9.202;2023-03-05T10:56:04;9.10;44.20
17208;DHT22;8720;48.488;9.202;2023-03-05T10:58:32;9.20;44.20
17208;DHT22;8720;48.488;9.202;2023-03-05T11:01:03;9.20;44.00
17208;DHT22;8720;48.488;9.202;2023-03-05T11:03:52;9.20;43.90
17208;DHT22;8720;48.488;9.202;2023-03-05T11:06:33;9.30;43.50
17208;DHT22;8720;48.488;9.202;2023-03-05T11:09:20;9.30;43.50
17208;DHT22;8720;48.488;9.202;2023-03-05T11:12:12;9.40;43.30
17208;DHT22;8720;48.488;9.202;2023-03-05T11:14:43;9.40;43.10
17208;DHT22;8720;48.488;9.202;2023-03-05T11:17:27;9.50;43.60
17208;DHT22;8720;48.488;9.202;2023-03-05T11:23:05;9.60;42.70
17208;DHT22;8720;48.488;9.202;2023-03-05T11:25:54;9.70;43.10
17208;DHT22;8720;48.488;9.202;2023-03-05T11:28:26;9.80;42.50
17208;DHT22;8720;48.488;9.202;2023-03-05T11:31:02;9.80;42.70
17208;DHT22;8720;48.488;9.202;2023-03-05T11:33:34;9.80;42.70
17208;DHT22;8720;48.488;9.202;2023-03-05T11:36:22;9.90;42.80
17208;DHT22;8720;48.488;9.202;2023-03-05T11:38:54;9.90;42.20
17208;DHT22;8720;48.488;9.202;2023-03-05T11:41:28;9.90;42.40
17208;DHT22;8720;48.488;9.202;2023-03-05T11:44:01;9.90;42.00
17208;DHT22;8720;48.488;9.202;2023-03-05T11:46:39;9.90;42.20
17208;DHT22;8720;48.488;9.202;2023-03-05T11:49:12;9.90;42.00
17208;DHT22;8720;48.488;9.202;2023-03-05T11:51:50;9.90;41.90
17208;DHT22;8720;48.488;9.202;2023-03-05T11:54:27;9.80;41.70
17208;DHT22;8720;48.488;9.202;2023-03-05T11:57:01;9.80;42.00
17208;DHT22;8720;48.488;9.202;2023-03-05T11:59:33;9.70;41.80
17208;DHT22;8720;48.488;9.202;2023-03-05T12:02:15;9.70;41.70
17208;DHT22;8720;48.488;9.202;2023-03-05T12:04:45;9.60;41.50
17208;DHT22;8720;48.488;9.202;2023-03-05T12:07:19;9.60;42.00
17208;DHT22;8720;48.488;9.202;2023-03-05T12:09:55;9.50;42.00
17208;DHT22;8720;48.488;9.202;2023-03-05T12:12:36;9.50;42.10
17208;DHT22;8720;48.488;9.202;2023-03-05T12:15:28;9.40;41.70
17208;DHT22;8720;48.488;9.202;2023-03-05T12:18:27;9.40;41.50
17208;DHT22;8720;48.488;9.202;2023-03-05T12:21:06;9.40;41.50
17208;DHT22;8720;48.488;9.202;2023-03-05T12:23:47;9.40;41.90
17208;DHT22;8720;48.488;9.202;2023-03-05T12:26:15;9.50;41.70
17208;DHT22;8720;48.488;9.202;2023-03-05T12:28:54;9.40;41.80
17208;DHT22;8720;48.488;9.202;2023-03-05T12:31:34;9.50;41.30
17208;DHT22;8720;48.488;9.202;2023-03-05T12:37:57;9.50;41.20
17208;DHT22;8720;48.488;9.202;2023-03-05T12:40:31;9.50;41.00
17208;DHT22;8720;48.488;9.202;2023-03-05T12:43:01;9.50;41.40
17208;DHT22;8720;48.488;9.202;2023-03-05T12:45:39;9.50;41.30
17208;DHT22;8720;48.488;9.202;2023-03-05T12:48:33;9.50;40.90
17208;DHT22;8720;48.488;9.202;2023-03-05T12:51:33;9.50;40.90
17208;DHT22;8720;48.488;9.202;2023-03-05T12:54:28;9.50;40.90
17208;DHT22;8720;48.488;9.202;2023-03-05T12:56:59;9.40;41.00
17208;DHT22;8720;48.488;9.202;2023-03-05T12:59:41;9.40;41.30
17208;DHT22;8720;48.488;9.202;2023-03-05T13:02:22;9.30;41.10
17208;DHT22;8720;48.488;9.202;2023-03-05T13:04:57;9.30;41.00
17208;DHT22;8720;48.488;9.202;2023-03-05T13:07:28;9.20;41.10
17208;DHT22;8720;48.488;9.202;2023-03-05T13:09:56;9.10;41.20
17208;DHT22;8720;48.488;9.202;2023-03-05T13:12:28;9.00;41.20
17208;DHT22;8720;48.488;9.202;2023-03-05T13:15:01;9.00;41.30
17208;DHT22;8720;48.488;9.202;2023-03-05T13:17:33;8.90;41.30
17208;DHT22;8720;48.488;9.202;2023-03-05T13:20:23;8.90;41.70
17208;DHT22;8720;48.488;9.202;2023-03-05T13:23:04;8.90;41.50
17208;DHT22;8720;48.488;9.202;2023-03-05T13:25:41;8.90;41.50
17208;DHT22;8720;48.488;9.202;2023-03-05T13:28:13;8.80;41.50
17208;DHT22;8720;48.488;9.202;2023-03-05T13:30:44;8.80;41.40
17208;DHT22;8720;48.488;9.202;2023-03-05T13:33:21;8.70;41.40
17208;DHT22;8720;48.488;9.202;2023-03-05T13:35:51;8.70;41.50
17208;DHT22;8720;48.488;9.202;2023-03-05T13:38:23;8.70;41.70
17208;DHT22;8720;48.488;9.202;2023-03-05T13:43:51;8.70;41.70
17208;DHT22;8720;48.488;9.202;2023-03-05T13:46:25;8.70;41.80
17208;DHT22;8720;48.488;9.202;2023-03-05T13:48:54;8.70;41.80
17208;DHT22;8720;48.488;9.202;2023-03-05T13:51:22;8.60;41.80
17208;DHT22;8720;48.488;9.202;2023-03-05T13:53:50;8.60;41.90
17208;DHT22;8720;48.488;9.202;2023-03-05T13:56:19;8.60;41.90
17208;DHT22;8720;48.488;9.202;2023-03-05T13:58:51;8.60;41.90
17208;DHT22;8720;48.488;9.202;2023-03-05T14:01:26;8.50;41.90
17208;DHT22;8720;48.488;9.202;2023-03-05T14:03:57;8.40;41.90
17208;DHT22;8720;48.488;9.202;2023-03-05T14:06:29;8.40;42.00
17208;DHT22;8720;48.488;9.202;2023-03-05T14:09:02;8.30;42.60
17208;DHT22;8720;48.488;9.202;2023-03-05T14:11:32;8.30;42.00
17208;DHT22;8720;48.488;9.202;2023-03-05T14:14:08;8.30;42.20
17208;DHT22;8720;48.488;9.202;2023-03-05T14:16:42;8.20;42.30
17208;DHT22;8720;48.488;9.202;2023-03-05T14:19:31;8.20;42.40
17208;DHT22;8720;48.488;9.202;2023-03-05T14:22:02;8.10;42.40
17208;DHT22;8720;48.488;9.202;2023-03-05T14:24:31;8.10;42.60
17208;DHT22;8720;48.488;9.202;2023-03-05T14:27:00;8.10;42.70
17208;DHT22;8720;48.488;9.202;2023-03-05T14:29:43;8.10;42.80
17208;DHT22;8720;48.488;9.202;2023-03-05T14:32:18;8.10;42.90
17208;DHT22;8720;48.488;9.202;2023-03-05T14:34:55;8.00;42.80
17208;DHT22;8720;48.488;9.202;2023-03-05T14:37:28;8.00;42.80
17208;DHT22;8720;48.488;9.202;2023-03-05T14:40:00;8.00;42.90
17208;DHT22;8720;48.488;9.202;2023-03-05T14:42:32;8.00;42.90
17208;DHT22;8720;48.488;9.202;2023-03-05T14:45:10;8.00;43.00
17208;DHT22;8720;48.488;9.202;2023-03-05T14:47:39;8.00;42.80
17208;DHT22;8720;48.488;9.202;2023-03-05T14:50:07;7.90;42.70
17208;DHT22;8720;48.488;9.202;2023-03-05T14:52:36;7.90;42.80
17208;DHT22;8720;48.488;9.202;2023-03-05T14:55:04;7.80;42.80
17208;DHT22;8720;48.488;9.202;2023-03-05T14:57:32;7.80;42.80
17208;DHT22;8720;48.488;9.202;2023-03-05T14:59:59;7.70;42.90
17208;DHT22;8720;48.488;9.202;2023-03-05T15:02:28;7.70;43.00
17208;DHT22;8720;48.488;9.202;2023-03-05T15:04:55;7.60;42.90
17208;DHT22;8720;48.488;9.202;2023-03-05T15:07:29;7.60;43.00
17208;DHT22;8720;48.488;9.202;2023-03-05T15:09:57;7.60;43.00
17208;DHT22;8720;48.488;9.202;2023-03-05T15:12:25;7.60;43.00
17208;DHT22;8720;48.488;9.202;2023-03-05T15:14:54;7.60;43.00
17208;DHT22;8720;48.488;9.202;2023-03-05T15:17:26;7.70;43.10
17208;DHT22;8720;48.488;9.202;2023-03-05T15:20:00;7.70;43.10
17208;DHT22;8720;48.488;9.202;2023-03-05T15:22:31;7.70;43.70
17208;DHT22;8720;48.488;9.202;2023-03-05T15:24:58;7.70;43.10
17208;DHT22;8720;48.488;9.202;2023-03-05T15:27:26;7.70;43.00
17208;DHT22;8720;48.488;9.202;2023-03-05T15:29:53;7.80;43.10
17208;DHT22;8720;48.488;9.202;2023-03-05T15:32:20;7.80;43.70
17208;DHT22;8720;48.488;9.202;2023-03-05T15:34:49;7.80;43.10
17208;DHT22;8720;48.488;9.202;2023-03-05T15:37:16;7.80;43.10
17208;DHT22;8720;48.488;9.202;2023-03-05T15:39:43;7.90;43.10
17208;DHT22;8720;48.488;9.202;2023-03-05T15:42:11;7.90;43.20
17208;DHT22;8720;48.488;9.202;2023-03-05T15:44:38;7.90;43.20
17208;DHT22;8720;48.488;9.202;2023-03-05T15:47:05;7.90;43.10
17208;DHT22;8720;48.488;9.202;2023-03-05T15:49:33;7.90;43.10
17208;DHT22;8720;48.488;9.202;2023-03-05T15:52:01;7.90;43.10
17208;DHT22;8720;48.488;9.202;2023-03-05T15:54:29;7.90;43.00
17208;DHT22;8720;48.488;9.202;2023-03-05T15:56:56;7.90;43.00
17208;DHT22;8720;48.488;9.202;2023-03-05T15:59:23;7.90;42.90
17208;DHT22;8720;48.488;9.202;2023-03-05T16:01:51;7.90;42.90
17208;DHT22;8720;48.488;9.202;2023-03-05T16:04:18;7.90;43.00
17208;DHT22;8720;48.488;9.202;2023-03-05T16:06:47;7.90;43.00
17208;DHT22;8720;48.488;9.202;2023-03-05T16:09:18;7.90;43.00
17208;DHT22;8720;48.488;9.202;2023-03-05T16:11:48;7.90;43.00
17208;DHT22;8720;48.488;9.202;2023-03-05T16:14:19;7.90;43.00
17208;DHT22;8720;48.488;9.202;2023-03-05T16:16:49;7.90;42.90
17208;DHT22;8720;48.488;9.202;2023-03-05T16:19:20;7.90;42.80
17208;DHT22;8720;48.488;9.202;2023-03-05T16:21:49;7.90;42.80
17208;DHT22;8720;48.488;9.202;2023-03-05T16:24:20;7.80;42.70
17208;DHT22;8720;48.488;9.202;2023-03-05T16:26:48;7.80;42.80
17208;DHT22;8720;48.488;9.202;2023-03-05T16:29:15;7.80;42.80
17208;DHT22;8720;48.488;9.202;2023-03-05T16:31:42;7.80;42.90
17208;DHT22;8720;48.488;9.202;2023-03-05T16:34:11;7.80;42.90
17208;DHT22;8720;48.488;9.202;2023-03-05T16:36:45;7.80;42.90